sensor_id;sensor_type;location;lat;lon;timestamp;P1;durP1;ratioP1;P2;durP2;ratioP2
50367;SDS011;36281;34.132;-118.018;2023-12-14T00:01:31;16.42;;;9.70;;
50367;SDS011;36281;34.132;-118.018;2023-12-14T00:04:06;15.70;;;9.05;;
50367;SDS011;36281;34.132;-118.018;2023-12-14T00:06:36;14.43;;;9.05;;
50367;SDS011;36281;34.132;-118.018;2023-12-14T00:09:08;18.15;;;9.82;;
50367;SDS011;36281;34.132;-118.018;2023-12-14T00:11:39;19.05;;;9.85;;
50367;SDS011;36281;34.132;-118.018;2023-12-14T00:14:09;18.23;;;9.38;;
50367;SDS011;36281;34.132;-118.018;2023-12-14T00:16:41;16.30;;;9.68;;
50367;SDS011;36281;34.132;-118.018;2023-12-14T00:19:16;15.85;;;9.48;;
50367;SDS011;36281;34.132;-118.018;2023-12-14T00:21:46;13.55;;;9.40;;
50367;SDS011;36281;34.132;-118.018;2023-12-14T00:24:18;16.75;;;8.90;;
50367;SDS011;36281;34.132;-118.018;2023-12-14T00:26:48;15.95;;;8.15;;
50367;SDS011;36281;34.132;-118.018;2023-12-14T00:29:19;15.50;;;8.27;;
50367;SDS011;36281;34.132;-118.018;2023-12-14T00:31:51;16.75;;;8.23;;
50367;SDS011;36281;34.132;-118.018;2023-12-14T00:34:27;17.55;;;8.15;;
50367;SDS011;36281;34.132;-118.018;2023-12-14T00:37:02;12.40;;;7.13;;
50367;SDS011;36281;34.132;-118.018;2023-12-14T00:39:33;13.15;;;7.88;;
50367;SDS011;36281;34.132;-118.018;2023-12-14T00:42:04;13.32;;;7.20;;
50367;SDS011;36281;34.132;-118.018;2023-12-14T00:44:37;13.10;;;7.05;;
50367;SDS011;36281;34.132;-118.018;2023-12-14T00:47:07;15.60;;;7.43;;
50367;SDS011;36281;34.132;-118.018;2023-12-14T00:49:42;14.55;;;7.18;;
50367;SDS011;36281;34.132;-118.018;2023-12-14T00:52:13;14.07;;;7.80;;
50367;SDS011;36281;34.132;-118.018;2023-12-14T00:54:43;15.25;;;7.90;;
50367;SDS011;36281;34.132;-118.018;2023-12-14T00:57:14;13.90;;;7.60;;
50367;SDS011;36281;34.132;-118.018;2023-12-14T00:59:46;14.18;;;7.85;;
50367;SDS011;36281;34.132;-118.018;2023-12-14T01:02:17;15.38;;;8.00;;
50367;SDS011;36281;34.132;-118.018;2023-12-14T01:04:56;16.33;;;7.65;;
50367;SDS011;36281;34.132;-118.018;2023-12-14T01:07:28;14.57;;;7.43;;
50367;SDS011;36281;34.132;-118.018;2023-12-14T01:10:00;16.75;;;7.30;;
50367;SDS011;36281;34.132;-118.018;2023-12-14T01:12:32;14.75;;;7.75;;
50367;SDS011;36281;34.132;-118.018;2023-12-14T01:15:05;18.48;;;8.52;;
50367;SDS011;36281;34.132;-118.018;2023-12-14T01:17:37;16.83;;;8.68;;
50367;SDS011;36281;34.132;-118.018;2023-12-14T01:20:22;16.25;;;7.57;;
50367;SDS011;36281;34.132;-118.018;2023-12-14T01:22:52;15.98;;;7.70;;
50367;SDS011;36281;34.132;-118.018;2023-12-14T01:25:26;17.35;;;7.75;;
50367;SDS011;36281;34.132;-118.018;2023-12-14T01:27:59;18.40;;;7.68;;
50367;SDS011;36281;34.132;-118.018;2023-12-14T01:30:30;15.07;;;7.78;;
50367;SDS011;36281;34.132;-118.018;2023-12-14T01:33:02;17.58;;;7.85;;
50367;SDS011;36281;34.132;-118.018;2023-12-14T01:35:37;14.55;;;7.63;;
50367;SDS011;36281;34.132;-118.018;2023-12-14T01:38:08;12.73;;;7.40;;
50367;SDS011;36281;34.132;-118.018;2023-12-14T01:40:40;9.95;;;6.63;;
50367;SDS011;36281;34.132;-118.018;2023-12-14T01:43:11;10.57;;;7.03;;
50367;SDS011;36281;34.132;-118.018;2023-12-14T01:45:55;13.57;;;7.65;;
50367;SDS011;36281;34.132;-118.018;2023-12-14T01:48:26;13.00;;;7.45;;
50367;SDS011;36281;34.132;-118.018;2023-12-14T01:51:05;11.90;;;7.28;;
50367;SDS011;36281;34.132;-118.018;2023-12-14T01:53:38;13.15;;;7.45;;
50367;SDS011;36281;34.132;-118.018;2023-12-14T01:56:11;18.25;;;8.05;;
50367;SDS011;36281;34.132;-118.018;2023-12-14T01:58:41;16.33;;;8.15;;
50367;SDS011;36281;34.132;-118.018;2023-12-14T02:01:16;14.30;;;7.45;;
50367;SDS011;36281;34.132;-118.018;2023-12-14T02:03:58;13.60;;;8.00;;
50367;SDS011;36281;34.132;-118.018;2023-12-14T02:06:30;15.35;;;8.52;;
50367;SDS011;36281;34.132;-118.018;2023-12-14T02:09:03;13.95;;;8.15;;
50367;SDS011;36281;34.132;-118.018;2023-12-14T02:11:39;14.25;;;7.72;;
50367;SDS011;36281;34.132;-118.018;2023-12-14T02:14:11;14.20;;;7.63;;
50367;SDS011;36281;34.132;-118.018;2023-12-14T02:16:44;13.15;;;7.18;;
50367;SDS011;36281;34.132;-118.018;2023-12-14T02:19:15;18.52;;;8.63;;
50367;SDS011;36281;34.132;-118.018;2023-12-14T02:21:48;15.65;;;8.18;;
50367;SDS011;36281;34.132;-118.018;2023-12-14T02:24:28;13.20;;;7.67;;
50367;SDS011;36281;34.132;-118.018;2023-12-14T02:27:03;15.57;;;8.68;;
50367;SDS011;36281;34.132;-118.018;2023-12-14T02:29:35;18.00;;;8.52;;
50367;SDS011;36281;34.132;-118.018;2023-12-14T02:32:08;18.60;;;8.32;;
50367;SDS011;36281;34.132;-118.018;2023-12-14T02:34:41;17.83;;;8.82;;
50367;SDS011;36281;34.132;-118.018;2023-12-14T02:37:12;14.13;;;7.82;;
50367;SDS011;36281;34.132;-118.018;2023-12-14T02:39:54;14.55;;;8.25;;
50367;SDS011;36281;34.132;-118.018;2023-12-14T02:42:25;17.58;;;8.45;;
50367;SDS011;36281;34.132;-118.018;2023-12-14T02:44:57;16.40;;;7.97;;
50367;SDS011;36281;34.132;-118.018;2023-12-14T02:47:31;18.33;;;8.30;;
50367;SDS011;36281;34.132;-118.018;2023-12-14T02:50:06;16.70;;;8.32;;
50367;SDS011;36281;34.132;-118.018;2023-12-14T02:52:47;14.43;;;8.60;;
50367;SDS011;36281;34.132;-118.018;2023-12-14T02:55:22;13.43;;;7.97;;
50367;SDS011;36281;34.132;-118.018;2023-12-14T02:57:52;16.30;;;8.40;;
50367;SDS011;36281;34.132;-118.018;2023-12-14T03:00:25;13.45;;;8.43;;
50367;SDS011;36281;34.132;-118.018;2023-12-14T03:02:56;15.15;;;8.40;;
50367;SDS011;36281;34.132;-118.018;2023-12-14T03:05:28;17.80;;;9.30;;
50367;SDS011;36281;34.132;-118.018;2023-12-14T03:07:59;16.65;;;8.88;;
50367;SDS011;36281;34.132;-118.018;2023-12-14T03:10:33;14.60;;;8.55;;
50367;SDS011;36281;34.132;-118.018;2023-12-14T03:13:04;17.88;;;10.50;;
50367;SDS011;36281;34.132;-118.018;2023-12-14T03:15:36;11.65;;;9.27;;
50367;SDS011;36281;34.132;-118.018;2023-12-14T03:18:07;19.25;;;9.82;;
50367;SDS011;36281;34.132;-118.018;2023-12-14T03:20:38;18.48;;;9.65;;
50367;SDS011;36281;34.132;-118.018;2023-12-14T03:23:14;15.55;;;10.27;;
50367;SDS011;36281;34.132;-118.018;2023-12-14T03:25:53;15.77;;;10.55;;
50367;SDS011;36281;34.132;-118.018;2023-12-14T03:28:25;14.68;;;10.18;;
50367;SDS011;36281;34.132;-118.018;2023-12-14T03:30:55;28.60;;;15.90;;
50367;SDS011;36281;34.132;-118.018;2023-12-14T03:33:26;25.45;;;12.95;;
50367;SDS011;36281;34.132;-118.018;2023-12-14T03:35:57;18.65;;;11.38;;
50367;SDS011;36281;34.132;-118.018;2023-12-14T03:38:31;19.90;;;11.27;;
50367;SDS011;36281;34.132;-118.018;2023-12-14T03:41:05;19.25;;;11.23;;
50367;SDS011;36281;34.132;-118.018;2023-12-14T03:43:36;16.27;;;11.23;;
50367;SDS011;36281;34.132;-118.018;2023-12-14T03:46:08;21.45;;;11.88;;
50367;SDS011;36281;34.132;-118.018;2023-12-14T03:48:41;18.85;;;11.43;;
50367;SDS011;36281;34.132;-118.018;2023-12-14T03:51:11;23.05;;;11.40;;
50367;SDS011;36281;34.132;-118.018;2023-12-14T03:53:41;17.83;;;11.60;;
50367;SDS011;36281;34.132;-118.018;2023-12-14T03:56:14;17.67;;;11.35;;
50367;SDS011;36281;34.132;-118.018;2023-12-14T03:58:45;21.90;;;11.25;;
50367;SDS011;36281;34.132;-118.018;2023-12-14T04:01:17;16.60;;;11.35;;
50367;SDS011;36281;34.132;-118.018;2023-12-14T04:03:48;17.67;;;11.20;;
50367;SDS011;36281;34.132;-118.018;2023-12-14T04:06:21;23.92;;;11.48;;
50367;SDS011;36281;34.132;-118.018;2023-12-14T04:08:55;22.52;;;11.68;;
50367;SDS011;36281;34.132;-118.018;2023-12-14T04:11:31;20.67;;;11.10;;
50367;SDS011;36281;34.132;-118.018;2023-12-14T04:14:02;21.67;;;11.60;;
50367;SDS011;36281;34.132;-118.018;2023-12-14T04:16:34;21.80;;;13.07;;
50367;SDS011;36281;34.132;-118.018;2023-12-14T04:19:04;24.08;;;11.93;;
50367;SDS011;36281;34.132;-118.018;2023-12-14T04:21:39;19.35;;;11.68;;
50367;SDS011;36281;34.132;-118.018;2023-12-14T04:24:11;20.52;;;11.30;;
50367;SDS011;36281;34.132;-118.018;2023-12-14T04:26:47;20.00;;;11.40;;
50367;SDS011;36281;34.132;-118.018;2023-12-14T04:29:20;28.52;;;13.27;;
50367;SDS011;36281;34.132;-118.018;2023-12-14T04:31:55;27.52;;;13.57;;
50367;SDS011;36281;34.132;-118.018;2023-12-14T04:34:30;26.70;;;13.00;;
50367;SDS011;36281;34.132;-118.018;2023-12-14T04:37:02;26.50;;;13.75;;
50367;SDS011;36281;34.132;-118.018;2023-12-14T04:39:34;23.58;;;13.77;;
50367;SDS011;36281;34.132;-118.018;2023-12-14T04:42:09;19.00;;;12.77;;
50367;SDS011;36281;34.132;-118.018;2023-12-14T04:44:41;19.00;;;12.00;;
50367;SDS011;36281;34.132;-118.018;2023-12-14T04:47:12;19.58;;;12.63;;
50367;SDS011;36281;34.132;-118.018;2023-12-14T04:49:43;17.27;;;11.38;;
50367;SDS011;36281;34.132;-118.018;2023-12-14T04:52:14;18.65;;;12.13;;
50367;SDS011;36281;34.132;-118.018;2023-12-14T04:54:50;24.77;;;12.32;;
50367;SDS011;36281;34.132;-118.018;2023-12-14T04:57:26;17.70;;;10.95;;
50367;SDS011;36281;34.132;-118.018;2023-12-14T04:59:56;21.70;;;11.23;;
50367;SDS011;36281;34.132;-118.018;2023-12-14T05:02:27;14.05;;;11.18;;
50367;SDS011;36281;34.132;-118.018;2023-12-14T05:04:58;18.30;;;11.48;;
50367;SDS011;36281;34.132;-118.018;2023-12-14T05:07:29;25.27;;;12.30;;
50367;SDS011;36281;34.132;-118.018;2023-12-14T05:10:00;19.73;;;12.18;;
50367;SDS011;36281;34.132;-118.018;2023-12-14T05:12:34;19.55;;;11.70;;
50367;SDS011;36281;34.132;-118.018;2023-12-14T05:15:05;15.43;;;10.70;;
50367;SDS011;36281;34.132;-118.018;2023-12-14T05:17:36;19.10;;;10.32;;
50367;SDS011;36281;34.132;-118.018;2023-12-14T05:20:10;16.33;;;10.13;;
50367;SDS011;36281;34.132;-118.018;2023-12-14T05:22:41;20.50;;;11.25;;
50367;SDS011;36281;34.132;-118.018;2023-12-14T05:25:13;16.48;;;10.10;;
50367;SDS011;36281;34.132;-118.018;2023-12-14T05:27:47;30.58;;;10.60;;
50367;SDS011;36281;34.132;-118.018;2023-12-14T05:30:17;14.48;;;9.30;;
50367;SDS011;36281;34.132;-118.018;2023-12-14T05:32:54;15.13;;;9.85;;
50367;SDS011;36281;34.132;-118.018;2023-12-14T05:35:26;15.35;;;9.65;;
50367;SDS011;36281;34.132;-118.018;2023-12-14T05:38:01;14.95;;;9.68;;
50367;SDS011;36281;34.132;-118.018;2023-12-14T05:40:38;17.45;;;9.07;;
50367;SDS011;36281;34.132;-118.018;2023-12-14T05:43:10;16.10;;;9.63;;
50367;SDS011;36281;34.132;-118.018;2023-12-14T05:45:45;17.17;;;10.02;;
50367;SDS011;36281;34.132;-118.018;2023-12-14T05:48:19;17.65;;;10.13;;
50367;SDS011;36281;34.132;-118.018;2023-12-14T05:50:55;17.65;;;10.18;;
50367;SDS011;36281;34.132;-118.018;2023-12-14T05:53:27;16.52;;;10.02;;
50367;SDS011;36281;34.132;-118.018;2023-12-14T05:55:57;17.05;;;10.85;;
50367;SDS011;36281;34.132;-118.018;2023-12-14T05:58:36;20.23;;;11.55;;
50367;SDS011;36281;34.132;-118.018;2023-12-14T06:01:10;21.23;;;11.20;;
50367;SDS011;36281;34.132;-118.018;2023-12-14T06:03:40;14.43;;;9.77;;
50367;SDS011;36281;34.132;-118.018;2023-12-14T06:06:13;18.98;;;10.60;;
50367;SDS011;36281;34.132;-118.018;2023-12-14T06:08:43;20.45;;;10.50;;
50367;SDS011;36281;34.132;-118.018;2023-12-14T06:11:13;16.45;;;10.30;;
50367;SDS011;36281;34.132;-118.018;2023-12-14T06:13:49;22.58;;;10.68;;
50367;SDS011;36281;34.132;-118.018;2023-12-14T06:16:21;16.98;;;10.85;;
50367;SDS011;36281;34.132;-118.018;2023-12-14T06:18:52;15.68;;;10.07;;
50367;SDS011;36281;34.132;-118.018;2023-12-14T06:21:21;17.50;;;9.52;;
50367;SDS011;36281;34.132;-118.018;2023-12-14T06:23:59;17.23;;;10.38;;
50367;SDS011;36281;34.132;-118.018;2023-12-14T06:26:29;16.77;;;9.45;;
50367;SDS011;36281;34.132;-118.018;2023-12-14T06:29:09;20.20;;;11.02;;
50367;SDS011;36281;34.132;-118.018;2023-12-14T06:31:41;16.77;;;10.00;;
50367;SDS011;36281;34.132;-118.018;2023-12-14T06:34:16;13.82;;;9.30;;
50367;SDS011;36281;34.132;-118.018;2023-12-14T06:36:50;18.00;;;10.32;;
50367;SDS011;36281;34.132;-118.018;2023-12-14T06:39:25;16.77;;;10.50;;
50367;SDS011;36281;34.132;-118.018;2023-12-14T06:42:04;15.02;;;10.20;;
50367;SDS011;36281;34.132;-118.018;2023-12-14T06:44:39;17.10;;;10.80;;
50367;SDS011;36281;34.132;-118.018;2023-12-14T06:47:09;16.73;;;11.15;;
50367;SDS011;36281;34.132;-118.018;2023-12-14T06:49:45;19.55;;;11.10;;
50367;SDS011;36281;34.132;-118.018;2023-12-14T06:52:17;13.43;;;9.32;;
50367;SDS011;36281;34.132;-118.018;2023-12-14T06:54:49;16.23;;;10.30;;
50367;SDS011;36281;34.132;-118.018;2023-12-14T06:57:21;16.63;;;10.60;;
50367;SDS011;36281;34.132;-118.018;2023-12-14T06:59:56;18.02;;;10.40;;
50367;SDS011;36281;34.132;-118.018;2023-12-14T07:02:26;18.00;;;10.32;;
50367;SDS011;36281;34.132;-118.018;2023-12-14T07:04:56;13.25;;;8.88;;
50367;SDS011;36281;34.132;-118.018;2023-12-14T07:07:34;13.93;;;9.20;;
50367;SDS011;36281;34.132;-118.018;2023-12-14T07:10:08;14.63;;;9.45;;
50367;SDS011;36281;34.132;-118.018;2023-12-14T07:12:41;14.60;;;9.70;;
50367;SDS011;36281;34.132;-118.018;2023-12-14T07:15:14;15.93;;;8.88;;
50367;SDS011;36281;34.132;-118.018;2023-12-14T07:17:46;20.00;;;10.27;;
50367;SDS011;36281;34.132;-118.018;2023-12-14T07:20:15;16.15;;;10.20;;
50367;SDS011;36281;34.132;-118.018;2023-12-14T07:22:50;19.15;;;9.95;;
50367;SDS011;36281;34.132;-118.018;2023-12-14T07:25:21;17.10;;;9.82;;
50367;SDS011;36281;34.132;-118.018;2023-12-14T07:27:54;15.48;;;9.75;;
50367;SDS011;36281;34.132;-118.018;2023-12-14T07:30:29;15.02;;;10.48;;
50367;SDS011;36281;34.132;-118.018;2023-12-14T07:33:01;12.82;;;9.48;;
50367;SDS011;36281;34.132;-118.018;2023-12-14T07:35:34;15.95;;;10.30;;
50367;SDS011;36281;34.132;-118.018;2023-12-14T07:38:06;14.98;;;10.27;;
50367;SDS011;36281;34.132;-118.018;2023-12-14T07:40:36;19.77;;;11.02;;
50367;SDS011;36281;34.132;-118.018;2023-12-14T07:43:11;20.75;;;11.13;;
50367;SDS011;36281;34.132;-118.018;2023-12-14T07:45:45;18.95;;;10.80;;
50367;SDS011;36281;34.132;-118.018;2023-12-14T07:48:16;15.90;;;10.77;;
50367;SDS011;36281;34.132;-118.018;2023-12-14T07:50:46;16.27;;;10.10;;
50367;SDS011;36281;34.132;-118.018;2023-12-14T07:53:17;17.75;;;10.30;;
50367;SDS011;36281;34.132;-118.018;2023-12-14T07:55:49;15.73;;;9.95;;
50367;SDS011;36281;34.132;-118.018;2023-12-14T07:58:20;18.48;;;9.82;;
50367;SDS011;36281;34.132;-118.018;2023-12-14T08:00:53;15.20;;;9.77;;
50367;SDS011;36281;34.132;-118.018;2023-12-14T08:03:28;16.55;;;10.23;;
50367;SDS011;36281;34.132;-118.018;2023-12-14T08:06:00;13.95;;;9.02;;
50367;SDS011;36281;34.132;-118.018;2023-12-14T08:08:31;15.20;;;9.20;;
50367;SDS011;36281;34.132;-118.018;2023-12-14T08:11:02;14.60;;;9.30;;
50367;SDS011;36281;34.132;-118.018;2023-12-14T08:13:37;15.32;;;8.38;;
50367;SDS011;36281;34.132;-118.018;2023-12-14T08:16:20;14.77;;;9.05;;
50367;SDS011;36281;34.132;-118.018;2023-12-14T08:18:49;14.85;;;9.55;;
50367;SDS011;36281;34.132;-118.018;2023-12-14T08:21:21;15.55;;;9.45;;
50367;SDS011;36281;34.132;-118.018;2023-12-14T08:23:50;14.40;;;9.77;;
50367;SDS011;36281;34.132;-118.018;2023-12-14T08:26:21;12.68;;;9.05;;
50367;SDS011;36281;34.132;-118.018;2023-12-14T08:28:51;14.20;;;9.25;;
50367;SDS011;36281;34.132;-118.018;2023-12-14T08:31:24;14.88;;;9.73;;
50367;SDS011;36281;34.132;-118.018;2023-12-14T08:33:55;15.48;;;9.32;;
50367;SDS011;36281;34.132;-118.018;2023-12-14T08:36:27;12.50;;;8.75;;
50367;SDS011;36281;34.132;-118.018;2023-12-14T08:38:56;11.63;;;8.63;;
50367;SDS011;36281;34.132;-118.018;2023-12-14T08:41:29;13.57;;;8.65;;
50367;SDS011;36281;34.132;-118.018;2023-12-14T08:44:01;12.68;;;8.00;;
50367;SDS011;36281;34.132;-118.018;2023-12-14T08:46:40;12.75;;;8.63;;
50367;SDS011;36281;34.132;-118.018;2023-12-14T08:49:10;13.15;;;8.10;;
50367;SDS011;36281;34.132;-118.018;2023-12-14T08:51:45;11.55;;;8.40;;
50367;SDS011;36281;34.132;-118.018;2023-12-14T08:54:15;12.07;;;8.35;;
50367;SDS011;36281;34.132;-118.018;2023-12-14T08:56:47;11.90;;;8.40;;
50367;SDS011;36281;34.132;-118.018;2023-12-14T08:59:17;13.50;;;8.25;;
50367;SDS011;36281;34.132;-118.018;2023-12-14T09:01:52;10.25;;;7.72;;
50367;SDS011;36281;34.132;-118.018;2023-12-14T09:04:24;13.90;;;8.10;;
50367;SDS011;36281;34.132;-118.018;2023-12-14T09:06:54;13.45;;;8.57;;
50367;SDS011;36281;34.132;-118.018;2023-12-14T09:09:26;13.25;;;8.40;;
50367;SDS011;36281;34.132;-118.018;2023-12-14T09:11:57;12.60;;;8.10;;
50367;SDS011;36281;34.132;-118.018;2023-12-14T09:14:30;11.10;;;7.88;;
50367;SDS011;36281;34.132;-118.018;2023-12-14T09:17:04;14.35;;;8.35;;
50367;SDS011;36281;34.132;-118.018;2023-12-14T09:19:38;13.32;;;8.27;;
50367;SDS011;36281;34.132;-118.018;2023-12-14T09:22:09;14.73;;;8.25;;
50367;SDS011;36281;34.132;-118.018;2023-12-14T09:24:41;16.65;;;8.10;;
50367;SDS011;36281;34.132;-118.018;2023-12-14T09:27:10;12.82;;;7.85;;
50367;SDS011;36281;34.132;-118.018;2023-12-14T09:29:39;11.00;;;8.30;;
50367;SDS011;36281;34.132;-118.018;2023-12-14T09:32:13;12.98;;;8.90;;
50367;SDS011;36281;34.132;-118.018;2023-12-14T09:37:20;16.23;;;8.30;;
50367;SDS011;36281;34.132;-118.018;2023-12-14T09:39:51;15.05;;;8.25;;
50367;SDS011;36281;34.132;-118.018;2023-12-14T09:42:21;17.25;;;9.00;;
50367;SDS011;36281;34.132;-118.018;2023-12-14T09:44:56;11.80;;;8.20;;
50367;SDS011;36281;34.132;-118.018;2023-12-14T09:47:31;13.52;;;8.40;;
50367;SDS011;36281;34.132;-118.018;2023-12-14T09:50:02;13.07;;;9.20;;
50367;SDS011;36281;34.132;-118.018;2023-12-14T09:52:36;15.52;;;8.65;;
50367;SDS011;36281;34.132;-118.018;2023-12-14T09:55:08;12.82;;;8.48;;
50367;SDS011;36281;34.132;-118.018;2023-12-14T09:57:39;12.27;;;8.43;;
50367;SDS011;36281;34.132;-118.018;2023-12-14T10:00:11;17.25;;;8.95;;
50367;SDS011;36281;34.132;-118.018;2023-12-14T10:05:50;12.32;;;8.38;;
50367;SDS011;36281;34.132;-118.018;2023-12-14T10:08:21;10.45;;;7.47;;
50367;SDS011;36281;34.132;-118.018;2023-12-14T10:10:54;14.90;;;8.52;;
50367;SDS011;36281;34.132;-118.018;2023-12-14T10:13:36;12.23;;;7.97;;
50367;SDS011;36281;34.132;-118.018;2023-12-14T10:16:08;14.23;;;8.07;;
50367;SDS011;36281;34.132;-118.018;2023-12-14T10:18:45;12.38;;;7.97;;
50367;SDS011;36281;34.132;-118.018;2023-12-14T10:23:49;15.02;;;7.95;;
50367;SDS011;36281;34.132;-118.018;2023-12-14T10:26:22;12.35;;;8.40;;
50367;SDS011;36281;34.132;-118.018;2023-12-14T10:28:54;11.32;;;8.35;;
50367;SDS011;36281;34.132;-118.018;2023-12-14T10:31:25;11.32;;;7.43;;
50367;SDS011;36281;34.132;-118.018;2023-12-14T10:33:58;13.90;;;8.18;;
50367;SDS011;36281;34.132;-118.018;2023-12-14T10:36:29;12.10;;;8.40;;
50367;SDS011;36281;34.132;-118.018;2023-12-14T10:39:01;15.20;;;8.93;;
50367;SDS011;36281;34.132;-118.018;2023-12-14T10:41:33;16.63;;;9.00;;
50367;SDS011;36281;34.132;-118.018;2023-12-14T10:44:06;12.68;;;9.30;;
50367;SDS011;36281;34.132;-118.018;2023-12-14T10:46:57;13.75;;;9.05;;
50367;SDS011;36281;34.132;-118.018;2023-12-14T10:49:32;14.80;;;8.73;;
50367;SDS011;36281;34.132;-118.018;2023-12-14T10:52:06;13.13;;;8.77;;
50367;SDS011;36281;34.132;-118.018;2023-12-14T10:54:38;15.27;;;8.45;;
50367;SDS011;36281;34.132;-118.018;2023-12-14T10:57:13;13.85;;;8.10;;
50367;SDS011;36281;34.132;-118.018;2023-12-14T10:59:43;10.98;;;7.43;;
50367;SDS011;36281;34.132;-118.018;2023-12-14T11:02:17;11.43;;;7.35;;
50367;SDS011;36281;34.132;-118.018;2023-12-14T11:05:00;11.63;;;6.43;;
50367;SDS011;36281;34.132;-118.018;2023-12-14T11:10:25;11.93;;;6.50;;
50367;SDS011;36281;34.132;-118.018;2023-12-14T11:13:10;13.45;;;6.72;;
50367;SDS011;36281;34.132;-118.018;2023-12-14T11:15:46;14.20;;;7.22;;
50367;SDS011;36281;34.132;-118.018;2023-12-14T11:18:23;12.55;;;6.53;;
50367;SDS011;36281;34.132;-118.018;2023-12-14T11:20:58;12.18;;;6.30;;
50367;SDS011;36281;34.132;-118.018;2023-12-14T11:23:32;10.68;;;6.72;;
50367;SDS011;36281;34.132;-118.018;2023-12-14T11:26:05;10.13;;;6.03;;
50367;SDS011;36281;34.132;-118.018;2023-12-14T11:28:38;9.40;;;6.53;;
50367;SDS011;36281;34.132;-118.018;2023-12-14T11:31:12;11.13;;;6.35;;
50367;SDS011;36281;34.132;-118.018;2023-12-14T11:33:44;11.63;;;6.40;;
50367;SDS011;36281;34.132;-118.018;2023-12-14T11:36:18;11.27;;;6.43;;
50367;SDS011;36281;34.132;-118.018;2023-12-14T11:38:49;8.73;;;6.07;;
50367;SDS011;36281;34.132;-118.018;2023-12-14T11:41:23;9.30;;;6.30;;
50367;SDS011;36281;34.132;-118.018;2023-12-14T11:43:53;10.73;;;6.75;;
50367;SDS011;36281;34.132;-118.018;2023-12-14T11:46:25;10.40;;;6.35;;
50367;SDS011;36281;34.132;-118.018;2023-12-14T11:49:01;8.45;;;6.10;;
50367;SDS011;36281;34.132;-118.018;2023-12-14T11:51:35;7.90;;;5.90;;
50367;SDS011;36281;34.132;-118.018;2023-12-14T11:54:07;9.35;;;6.15;;
50367;SDS011;36281;34.132;-118.018;2023-12-14T11:56:38;9.02;;;6.10;;
50367;SDS011;36281;34.132;-118.018;2023-12-14T11:59:10;9.07;;;6.18;;
50367;SDS011;36281;34.132;-118.018;2023-12-14T12:01:48;11.90;;;6.72;;
50367;SDS011;36281;34.132;-118.018;2023-12-14T12:04:24;9.20;;;6.32;;
50367;SDS011;36281;34.132;-118.018;2023-12-14T12:07:05;8.27;;;5.88;;
50367;SDS011;36281;34.132;-118.018;2023-12-14T12:09:37;9.55;;;5.82;;
50367;SDS011;36281;34.132;-118.018;2023-12-14T12:12:10;7.80;;;5.88;;
50367;SDS011;36281;34.132;-118.018;2023-12-14T12:14:41;10.30;;;6.38;;
50367;SDS011;36281;34.132;-118.018;2023-12-14T12:17:12;9.90;;;6.00;;
50367;SDS011;36281;34.132;-118.018;2023-12-14T12:19:44;9.32;;;5.93;;
50367;SDS011;36281;34.132;-118.018;2023-12-14T12:22:19;8.25;;;6.70;;
50367;SDS011;36281;34.132;-118.018;2023-12-14T12:24:49;8.60;;;5.85;;
50367;SDS011;36281;34.132;-118.018;2023-12-14T12:27:34;9.95;;;5.95;;
50367;SDS011;36281;34.132;-118.018;2023-12-14T12:30:05;8.07;;;5.40;;
50367;SDS011;36281;34.132;-118.018;2023-12-14T12:32:39;8.82;;;5.47;;
50367;SDS011;36281;34.132;-118.018;2023-12-14T12:35:10;7.13;;;5.57;;
50367;SDS011;36281;34.132;-118.018;2023-12-14T12:37:43;8.40;;;5.38;;
50367;SDS011;36281;34.132;-118.018;2023-12-14T12:40:13;8.63;;;5.57;;
50367;SDS011;36281;34.132;-118.018;2023-12-14T12:42:48;7.28;;;5.38;;
50367;SDS011;36281;34.132;-118.018;2023-12-14T12:45:18;10.43;;;5.00;;
50367;SDS011;36281;34.132;-118.018;2023-12-14T12:47:56;8.05;;;4.90;;
50367;SDS011;36281;34.132;-118.018;2023-12-14T12:50:27;6.80;;;5.10;;
50367;SDS011;36281;34.132;-118.018;2023-12-14T12:53:00;11.13;;;5.97;;
50367;SDS011;36281;34.132;-118.018;2023-12-14T12:55:31;6.60;;;5.00;;
50367;SDS011;36281;34.132;-118.018;2023-12-14T12:58:03;8.35;;;5.30;;
50367;SDS011;36281;34.132;-118.018;2023-12-14T13:00:37;8.98;;;5.20;;
50367;SDS011;36281;34.132;-118.018;2023-12-14T13:03:07;8.00;;;5.28;;
50367;SDS011;36281;34.132;-118.018;2023-12-14T13:05:39;7.13;;;5.05;;
50367;SDS011;36281;34.132;-118.018;2023-12-14T13:08:12;8.68;;;5.07;;
50367;SDS011;36281;34.132;-118.018;2023-12-14T13:10:43;8.57;;;5.40;;
50367;SDS011;36281;34.132;-118.018;2023-12-14T13:13:14;7.63;;;5.13;;
50367;SDS011;36281;34.132;-118.018;2023-12-14T13:15:46;8.35;;;5.50;;
50367;SDS011;36281;34.132;-118.018;2023-12-14T13:18:15;8.27;;;5.40;;
50367;SDS011;36281;34.132;-118.018;2023-12-14T13:20:48;7.90;;;5.60;;
50367;SDS011;36281;34.132;-118.018;2023-12-14T13:23:21;7.05;;;5.10;;
50367;SDS011;36281;34.132;-118.018;2023-12-14T13:25:51;7.57;;;5.18;;
50367;SDS011;36281;34.132;-118.018;2023-12-14T13:28:22;7.78;;;4.55;;
50367;SDS011;36281;34.132;-118.018;2023-12-14T13:30:54;9.43;;;4.93;;
50367;SDS011;36281;34.132;-118.018;2023-12-14T13:33:25;7.95;;;5.18;;
50367;SDS011;36281;34.132;-118.018;2023-12-14T13:35:55;8.70;;;5.20;;
50367;SDS011;36281;34.132;-118.018;2023-12-14T13:38:29;8.48;;;5.45;;
50367;SDS011;36281;34.132;-118.018;2023-12-14T13:41:02;9.35;;;5.88;;
50367;SDS011;36281;34.132;-118.018;2023-12-14T13:43:34;7.45;;;5.18;;
50367;SDS011;36281;34.132;-118.018;2023-12-14T13:46:06;9.10;;;4.88;;
50367;SDS011;36281;34.132;-118.018;2023-12-14T13:48:47;9.00;;;5.53;;
50367;SDS011;36281;34.132;-118.018;2023-12-14T13:51:19;7.05;;;5.50;;
50367;SDS011;36281;34.132;-118.018;2023-12-14T13:53:53;9.00;;;5.45;;
50367;SDS011;36281;34.132;-118.018;2023-12-14T13:56:24;9.05;;;5.53;;
50367;SDS011;36281;34.132;-118.018;2023-12-14T13:58:55;8.10;;;5.40;;
50367;SDS011;36281;34.132;-118.018;2023-12-14T14:01:26;7.47;;;5.10;;
50367;SDS011;36281;34.132;-118.018;2023-12-14T14:03:55;7.90;;;4.82;;
50367;SDS011;36281;34.132;-118.018;2023-12-14T14:06:26;8.52;;;5.05;;
50367;SDS011;36281;34.132;-118.018;2023-12-14T14:08:59;10.30;;;5.43;;
50367;SDS011;36281;34.132;-118.018;2023-12-14T14:11:30;7.30;;;4.82;;
50367;SDS011;36281;34.132;-118.018;2023-12-14T14:14:00;7.75;;;5.05;;
50367;SDS011;36281;34.132;-118.018;2023-12-14T14:16:30;10.13;;;5.57;;
50367;SDS011;36281;34.132;-118.018;2023-12-14T14:19:02;6.57;;;4.68;;
50367;SDS011;36281;34.132;-118.018;2023-12-14T14:21:34;9.20;;;5.07;;
50367;SDS011;36281;34.132;-118.018;2023-12-14T14:24:10;6.38;;;4.70;;
50367;SDS011;36281;34.132;-118.018;2023-12-14T14:26:39;9.38;;;5.18;;
50367;SDS011;36281;34.132;-118.018;2023-12-14T14:29:10;6.32;;;4.13;;
50367;SDS011;36281;34.132;-118.018;2023-12-14T14:31:43;8.75;;;4.78;;
50367;SDS011;36281;34.132;-118.018;2023-12-14T14:34:13;6.50;;;5.10;;
50367;SDS011;36281;34.132;-118.018;2023-12-14T14:36:44;7.00;;;4.75;;
50367;SDS011;36281;34.132;-118.018;2023-12-14T14:39:17;10.07;;;4.65;;